createdAt,value
2022-11-15T00:03:57.437Z,48.00
2022-11-15T00:09:01.186Z,42.60
2022-11-15T00:14:06.250Z,49.40
2022-11-15T00:19:08.818Z,48.90
2022-11-15T00:24:11.490Z,49.70
2022-11-15T00:29:14.108Z,43.30
2022-11-15T00:34:16.648Z,50.10
2022-11-15T00:39:21.688Z,47.30
2022-11-15T00:44:24.248Z,50.30
2022-11-15T00:49:26.871Z,45.40
2022-11-15T00:54:29.657Z,44.50
2022-11-15T00:59:32.304Z,51.40
2022-11-15T01:04:34.940Z,50.10
2022-11-15T01:09:37.639Z,44.10
2022-11-15T01:14:40.356Z,45.90
2022-11-15T01:19:43.012Z,45.60
2022-11-15T01:24:45.771Z,49.50
2022-11-15T01:29:48.556Z,45.80
2022-11-15T01:34:51.157Z,50.50
2022-11-15T01:39:53.798Z,48.90
2022-11-15T01:44:56.519Z,54.30
2022-11-15T01:50:01.558Z,45.10
2022-11-15T01:55:07.311Z,45.50
2022-11-15T02:00:10.714Z,53.40
2022-11-15T02:05:13.451Z,45.80
2022-11-15T02:10:21.352Z,47.50
2022-11-15T02:15:33.553Z,51.00
2022-11-15T02:20:39.072Z,50.50
2022-11-15T02:25:46.891Z,51.30
2022-11-15T02:30:53.981Z,49.00
2022-11-15T02:36:04.121Z,48.80
2022-11-15T02:41:14.154Z,55.40
2022-11-15T02:46:23.393Z,56.10
2022-11-15T02:51:26.055Z,48.50
2022-11-15T02:56:28.717Z,51.60
2022-11-15T03:01:36.257Z,56.90
2022-11-15T03:06:42.806Z,57.50
2022-11-15T03:11:51.596Z,59.80
2022-11-15T03:16:56.514Z,57.00
2022-11-15T03:22:03.727Z,55.30
2022-11-15T03:27:10.838Z,59.70
2022-11-15T03:32:21.657Z,57.50
2022-11-15T03:37:31.634Z,54.20
2022-11-15T03:42:42.787Z,62.70
2022-11-15T03:48:00.650Z,58.50
2022-11-15T03:53:03.487Z,58.20
2022-11-15T03:58:06.191Z,55.00
2022-11-15T04:03:45.458Z,61.60
2022-11-15T04:08:48.116Z,55.10
2022-11-15T04:13:50.785Z,60.50
2022-11-15T04:19:13.371Z,60.20
2022-11-15T04:24:16.154Z,56.80
2022-11-15T04:29:21.919Z,56.30
2022-11-15T04:34:24.515Z,63.60
2022-11-15T04:39:27.158Z,52.20
2022-11-15T04:44:29.857Z,50.30
2022-11-15T04:49:32.606Z,46.70
2022-11-15T04:54:35.164Z,42.10
2022-11-15T04:59:37.764Z,39.20
2022-11-15T05:04:40.362Z,44.70
2022-11-15T05:09:42.965Z,46.20
2022-11-15T05:14:45.520Z,41.60
2022-11-15T05:19:48.077Z,38.50
2022-11-15T05:24:50.791Z,43.30
2022-11-15T05:29:55.708Z,23.70
2022-11-15T05:34:58.309Z,37.60
2022-11-15T05:40:01.055Z,36.10
2022-11-15T05:45:07.296Z,35.50
2022-11-15T05:50:13.704Z,37.40
2022-11-15T05:55:16.650Z,33.10
2022-11-15T06:00:19.559Z,34.20
2022-11-15T06:05:22.369Z,36.70
2022-11-15T06:10:25.145Z,35.10
2022-11-15T06:15:28.135Z,30.40
2022-11-15T06:20:30.780Z,29.80
2022-11-15T06:25:33.403Z,33.80
2022-11-15T06:30:36.164Z,32.30
2022-11-15T06:35:39.006Z,29.40
2022-11-15T06:40:41.638Z,32.30
2022-11-15T06:45:44.278Z,30.50
2022-11-15T06:50:51.520Z,31.90
2022-11-15T06:55:55.698Z,30.00
2022-11-15T07:01:04.878Z,34.10
2022-11-15T07:06:08.689Z,30.40
2022-11-15T07:11:11.341Z,32.50
2022-11-15T07:16:13.948Z,31.60
2022-11-15T07:21:16.576Z,24.30
2022-11-15T07:26:19.313Z,29.30
2022-11-15T07:31:22.071Z,31.10
2022-11-15T07:36:24.602Z,31.90
2022-11-15T07:41:27.159Z,34.30
2022-11-15T07:46:29.736Z,29.80
2022-11-15T07:51:32.357Z,32.20
2022-11-15T07:56:34.895Z,28.60
2022-11-15T08:01:37.608Z,31.30
2022-11-15T08:06:40.251Z,33.90
2022-11-15T08:11:42.804Z,15.50
2022-11-15T08:16:45.331Z,36.70
2022-11-15T08:21:48.090Z,38.30
2022-11-15T08:26:50.694Z,39.40
2022-11-15T08:31:56.802Z,43.40
2022-11-15T08:42:02.065Z,35.70
2022-11-15T08:47:04.733Z,33.90
2022-11-15T08:52:07.276Z,38.60
2022-11-15T08:57:10.467Z,34.40
2022-11-15T09:02:15.598Z,38.50
2022-11-15T09:07:18.699Z,38.50
2022-11-15T09:12:22.246Z,38.40
2022-11-15T09:17:25.375Z,41.20
2022-11-15T09:22:27.921Z,44.50
2022-11-15T09:27:31.409Z,39.60
2022-11-15T09:32:39.074Z,37.10
2022-11-15T09:37:42.046Z,47.80
2022-11-15T09:42:48.491Z,43.30
2022-11-15T09:47:56.928Z,42.40
2022-11-15T09:53:00.083Z,41.50
2022-11-15T09:58:17.829Z,33.00
2022-11-15T10:03:42.874Z,38.90
2022-11-15T10:09:00.115Z,39.00
2022-11-15T10:14:23.060Z,45.80
2022-11-15T10:19:29.492Z,42.40
2022-11-15T10:24:38.026Z,52.00
2022-11-15T10:29:48.894Z,54.00
2022-11-15T10:34:53.748Z,44.00
2022-11-15T10:40:02.279Z,45.10
2022-11-15T10:45:24.669Z,45.20
2022-11-15T10:50:31.788Z,36.40
2022-11-15T10:55:36.138Z,43.10
2022-11-15T11:00:40.471Z,42.50
2022-11-15T11:05:43.349Z,51.30
2022-11-15T11:10:54.169Z,48.30
2022-11-15T11:16:04.466Z,36.50
2022-11-15T11:21:13.302Z,37.90
2022-11-15T11:26:25.055Z,46.40
2022-11-15T11:31:33.551Z,42.10
2022-11-15T11:36:46.635Z,39.60
2022-11-15T11:41:56.376Z,42.80
2022-11-15T11:47:02.667Z,44.60
2022-11-15T11:52:09.114Z,36.50
2022-11-15T11:57:21.773Z,43.60
2022-11-15T12:02:30.501Z,36.60
2022-11-15T12:07:35.912Z,35.30
2022-11-15T12:12:48.374Z,32.40
2022-11-15T12:17:51.496Z,30.10
2022-11-15T12:22:59.133Z,36.60
2022-11-15T12:28:07.646Z,41.50
2022-11-15T12:33:29.849Z,38.60
2022-11-15T12:38:38.527Z,39.50
2022-11-15T12:43:43.376Z,32.40
2022-11-15T12:48:49.145Z,32.60
2022-11-15T12:53:51.797Z,20.10
2022-11-15T12:58:58.839Z,33.70
2022-11-15T13:04:07.222Z,36.30
2022-11-15T13:09:29.973Z,25.70
2022-11-15T13:14:40.726Z,24.80
2022-11-15T13:19:44.493Z,27.20
2022-11-15T13:24:47.251Z,27.30
2022-11-15T13:29:49.872Z,24.40
2022-11-15T13:34:54.258Z,26.70
2022-11-15T13:40:17.468Z,28.00
2022-11-15T13:45:21.186Z,28.40
2022-11-15T13:50:30.317Z,22.80
2022-11-15T13:55:33.968Z,20.40
2022-11-15T14:00:41.735Z,25.70
2022-11-15T14:05:47.556Z,25.20
2022-11-15T14:11:07.603Z,23.10
2022-11-15T14:16:16.590Z,27.00
2022-11-15T14:21:20.562Z,17.50
2022-11-15T14:26:29.000Z,23.10
2022-11-15T14:31:31.551Z,22.50
2022-11-15T14:36:34.098Z,20.30
2022-11-15T14:41:39.024Z,25.00
2022-11-15T14:46:41.572Z,24.90
2022-11-15T14:51:44.430Z,24.70
2022-11-15T14:56:46.977Z,27.40
2022-11-15T15:01:49.514Z,29.30
2022-11-15T15:06:52.197Z,25.40
2022-11-15T15:11:55.640Z,18.30
2022-11-15T15:16:58.200Z,24.60
2022-11-15T15:22:00.837Z,22.10
2022-11-15T15:27:03.463Z,20.00
2022-11-15T15:32:06.565Z,25.40
2022-11-15T15:37:20.072Z,20.40
2022-11-15T15:42:23.640Z,27.70
2022-11-15T15:47:26.545Z,25.40
2022-11-15T15:52:29.242Z,26.90
2022-11-15T15:57:31.782Z,27.20
2022-11-15T16:02:39.248Z,25.00
2022-11-15T16:07:47.240Z,23.10
2022-11-15T16:12:50.360Z,28.50
2022-11-15T16:17:55.997Z,27.10
2022-11-15T16:23:02.086Z,28.50
2022-11-15T16:28:17.265Z,27.80
2022-11-15T16:33:21.132Z,31.40
2022-11-15T16:38:23.905Z,31.30
2022-11-15T16:43:26.512Z,35.70
2022-11-15T16:48:29.230Z,18.20
2022-11-15T16:53:32.196Z,32.90
2022-11-15T16:58:37.328Z,31.70
2022-11-15T17:03:39.922Z,34.70
2022-11-15T17:08:42.814Z,31.80
2022-11-15T17:13:46.689Z,33.60
2022-11-15T17:18:51.582Z,21.30
2022-11-15T17:23:55.000Z,34.80
2022-11-15T17:28:57.755Z,33.40
2022-11-15T17:34:01.897Z,37.00
2022-11-15T17:39:05.004Z,31.70
2022-11-15T17:44:07.786Z,39.30
2022-11-15T17:49:10.391Z,44.70
2022-11-15T17:54:14.155Z,39.60
2022-11-15T17:59:21.182Z,36.90
2022-11-15T18:04:28.129Z,44.70
2022-11-15T18:09:30.693Z,42.90
2022-11-15T18:14:33.285Z,36.30
2022-11-15T18:19:36.397Z,37.30
2022-11-15T18:24:39.043Z,34.40
2022-11-15T18:29:41.632Z,38.80
2022-11-15T18:34:44.308Z,39.10
2022-11-15T18:39:52.571Z,36.00
2022-11-15T18:44:56.361Z,36.90
2022-11-15T18:49:59.601Z,45.40
2022-11-15T18:55:02.337Z,40.50
2022-11-15T19:00:05.493Z,26.50
2022-11-15T19:05:08.163Z,56.50
2022-11-15T19:10:11.875Z,41.00
2022-11-15T19:15:14.492Z,51.50
2022-11-15T19:20:17.204Z,54.30
2022-11-15T19:25:19.881Z,46.20
2022-11-15T19:30:22.442Z,47.70
2022-11-15T19:35:25.525Z,37.90
2022-11-15T19:40:28.255Z,47.20
2022-11-15T19:45:30.868Z,40.80
2022-11-15T19:50:36.681Z,39.50
2022-11-15T19:55:39.261Z,39.00
2022-11-15T20:00:42.126Z,42.00
2022-11-15T20:05:44.911Z,35.80
2022-11-15T20:10:48.756Z,41.60
2022-11-15T20:15:51.825Z,39.10
2022-11-15T20:20:58.430Z,44.10
2022-11-15T20:26:00.961Z,42.90
2022-11-15T20:31:03.736Z,37.10
2022-11-15T20:36:10.787Z,39.40
2022-11-15T20:41:14.499Z,38.50
2022-11-15T20:46:17.504Z,37.40
2022-11-15T20:51:20.611Z,34.90
2022-11-15T20:56:23.603Z,32.20
2022-11-15T21:01:27.683Z,34.00
2022-11-15T21:06:30.557Z,36.10
2022-11-15T21:11:36.051Z,38.00
2022-11-15T21:16:41.781Z,37.40
2022-11-15T21:21:44.413Z,38.20
2022-11-15T21:26:47.796Z,39.00
2022-11-15T21:31:53.716Z,35.80
2022-11-15T21:36:56.320Z,34.40
2022-11-15T21:41:59.053Z,33.50
2022-11-15T21:47:01.635Z,28.20
2022-11-15T21:52:04.293Z,33.20
2022-11-15T21:57:07.036Z,25.50
2022-11-15T22:02:12.575Z,32.60
2022-11-15T22:07:15.298Z,30.20
2022-11-15T22:12:18.039Z,27.60
2022-11-15T22:17:20.733Z,32.20
2022-11-15T22:22:23.404Z,28.60
2022-11-15T22:27:26.218Z,31.80
2022-11-15T22:32:28.852Z,34.20
2022-11-15T22:37:31.530Z,34.40
2022-11-15T22:42:34.236Z,42.60
2022-11-15T22:47:36.891Z,40.50
2022-11-15T22:52:39.635Z,34.10
2022-11-15T22:57:42.354Z,37.10
2022-11-15T23:02:45.187Z,37.60
2022-11-15T23:07:47.885Z,45.80
2022-11-15T23:12:53.467Z,34.80
2022-11-15T23:17:56.199Z,41.40
2022-11-15T23:22:59.521Z,42.20
2022-11-15T23:28:04.319Z,42.20
2022-11-15T23:33:10.063Z,44.70
2022-11-15T23:38:12.687Z,42.90
2022-11-15T23:43:15.376Z,41.40
2022-11-15T23:48:18.032Z,35.50
2022-11-15T23:53:20.907Z,42.10
2022-11-15T23:58:23.905Z,39.20
